Time;durP1;ratioP1;P1;durP2;ratioP2;P2;SDS_P1;SDS_P2;PMS_P1;PMS_P2;Temp;Humidity;BMP_temperature;BMP_pressure;BME280_temperature;BME280_humidity;BME280_pressure;Samples;Min_cycle;Max_cycle;Signal;HPM_P1;HPM_P2
2023/05/17 00:02:59;;;;;;;6.53;2.33;;;;;;;8.30;100.00;101127.47;6261797;28;20233;-89
2023/05/17 00:06:01;;;;;;;2.85;1.75;;;;;;;8.37;100.00;101133.88;6259024;28;20037;-90
2023/05/17 00:09:04;;;;;;;6.63;2.25;;;;;;;8.50;100.00;101128.88;6241703;28;20167;-89
2023/05/17 00:12:06;;;;;;;5.35;2.10;;;;;;;8.53;100.00;101118.34;6258719;28;20041;-89
2023/05/17 00:15:09;;;;;;;7.55;2.15;;;;;;;8.68;100.00;101120.00;6253944;28;20064;-89
2023/05/17 00:18:14;;;;;;;7.57;2.05;;;;;;;8.81;100.00;101118.31;6239821;28;20048;-90
2023/05/17 00:21:16;;;;;;;5.53;1.90;;;;;;;8.76;100.00;101120.34;6262762;28;20430;-89
2023/05/17 00:24:18;;;;;;;6.72;2.55;;;;;;;8.58;100.00;101113.75;6262844;28;20049;-89
2023/05/17 00:27:19;;;;;;;7.40;2.35;;;;;;;8.53;100.00;101105.47;6242232;28;20056;-89
2023/05/17 00:30:21;;;;;;;8.10;2.75;;;;;;;8.41;100.00;101118.16;6235560;28;20132;-89
2023/05/17 00:33:23;;;;;;;4.30;2.00;;;;;;;8.43;100.00;101125.00;6243088;28;20045;-89
2023/05/17 00:36:25;;;;;;;6.32;2.83;;;;;;;8.33;100.00;101122.13;6254008;28;20045;-89
2023/05/17 00:39:27;;;;;;;7.90;2.20;;;;;;;8.33;100.00;101124.69;6215267;28;20079;-89
2023/05/17 00:42:28;;;;;;;5.85;2.30;;;;;;;8.31;100.00;101127.34;6260372;28;20595;-89
2023/05/17 00:45:30;;;;;;;14.88;2.60;;;;;;;8.26;100.00;101134.53;6243566;28;20536;-89
2023/05/17 00:48:32;;;;;;;9.70;2.42;;;;;;;8.19;100.00;101136.63;6253915;28;20527;-89
2023/05/17 00:51:35;;;;;;;9.30;2.63;;;;;;;8.08;100.00;101130.47;6250345;28;20050;-89
2023/05/17 00:54:38;;;;;;;8.80;2.70;;;;;;;8.08;100.00;101125.31;6259367;28;20044;-89
2023/05/17 00:57:40;;;;;;;7.22;2.88;;;;;;;7.98;100.00;101125.84;6248763;28;20474;-89
2023/05/17 01:00:42;;;;;;;9.32;2.75;;;;;;;7.99;100.00;101130.06;6253734;28;20082;-89
2023/05/17 01:03:46;;;;;;;7.45;2.90;;;;;;;7.92;100.00;101135.69;6237019;28;20132;-89
2023/05/17 01:06:49;;;;;;;8.65;2.30;;;;;;;7.88;100.00;101137.63;6254949;28;20777;-89
2023/05/17 01:09:51;;;;;;;5.78;2.67;;;;;;;7.88;100.00;101137.63;6246861;28;20418;-89
2023/05/17 01:13:09;;;;;;;8.57;2.78;;;;;;;7.84;100.00;101136.13;6247134;28;20790;-89
2023/05/17 01:16:29;;;;;;;7.47;2.42;;;;;;;7.93;100.00;101148.50;6248536;28;20072;-89
2023/05/17 01:19:49;;;;;;;9.48;3.17;;;;;;;7.92;100.00;101151.16;6251550;28;20041;-89
2023/05/17 01:23:21;;;;;;;;;;;;;;;7.88;100.00;101150.50;6255073;28;20053;-89
2023/05/17 01:26:43;;;;;;;9.45;2.92;;;;;;;7.86;100.00;101142.03;6174746;28;20347;-89
2023/05/17 01:29:48;;;;;;;8.10;3.17;;;;;;;7.88;100.00;101147.09;6151187;28;20133;-89
2023/05/17 01:32:52;;;;;;;7.53;2.80;;;;;;;7.82;100.00;101150.84;6184163;28;20086;-89
2023/05/17 01:35:54;;;;;;;6.80;3.30;;;;;;;7.86;100.00;101151.50;6155041;28;20066;-90
2023/05/17 01:38:56;;;;;;;12.82;3.30;;;;;;;7.82;100.00;101152.59;6170546;28;20054;-89
2023/05/17 01:42:21;;;;;;;5.15;2.78;;;;;;;7.79;100.00;101153.59;6170441;28;20479;-89
2023/05/17 01:45:39;;;;;;;7.05;2.78;;;;;;;7.82;100.00;101150.84;6174391;28;20508;-89
2023/05/17 01:49:14;;;;;;;8.50;2.72;;;;;;;7.82;100.00;101156.00;6166497;28;20465;-89
2023/05/17 01:52:24;;;;;;;9.15;2.85;;;;;;;7.79;100.00;101160.50;6165196;28;20057;-89
2023/05/17 01:55:29;;;;;;;7.25;2.80;;;;;;;7.81;100.00;101164.66;6155859;28;20130;-90
2023/05/17 01:58:42;;;;;;;6.93;2.58;;;;;;;7.86;100.00;101162.66;6166886;28;20058;-90
2023/05/17 02:01:46;;;;;;;8.77;3.30;;;;;;;7.84;100.00;101158.50;6174525;28;20427;-90
2023/05/17 02:04:50;;;;;;;9.88;2.65;;;;;;;7.86;100.00;101162.66;6255747;28;20400;-90
2023/05/17 02:07:55;;;;;;;8.95;3.30;;;;;;;7.85;100.00;101166.16;6253569;28;20067;-89
2023/05/17 02:10:57;;;;;;;8.60;2.78;;;;;;;7.85;100.00;101160.16;6249574;28;20041;-90
2023/05/17 02:14:04;;;;;;;7.28;2.85;;;;;;;7.97;100.00;101168.03;6258887;28;20049;-89
2023/05/17 02:17:06;;;;;;;8.32;3.05;;;;;;;8.07;100.00;101168.28;6255974;28;20061;-89
2023/05/17 02:20:09;;;;;;;8.68;2.90;;;;;;;8.12;100.00;101170.63;6256267;28;20059;-90
2023/05/17 02:23:11;;;;;;;5.70;2.78;;;;;;;8.07;100.00;101165.72;6219033;28;20046;-90
2023/05/17 02:26:13;;;;;;;7.47;3.17;;;;;;;8.07;100.00;101172.63;6245647;28;20041;-89
2023/05/17 02:29:15;;;;;;;8.73;3.83;;;;;;;8.01;100.00;101166.09;6234727;28;20411;-89
2023/05/17 02:32:17;;;;;;;8.05;3.38;;;;;;;8.01;100.00;101160.94;6261626;28;20493;-89
2023/05/17 02:35:19;;;;;;;7.35;3.17;;;;;;;7.97;100.00;101169.75;6262788;28;20182;-89
2023/05/17 02:38:24;;;;;;;7.75;3.15;;;;;;;7.93;100.00;101169.13;6260982;28;20049;-89
2023/05/17 02:41:26;;;;;;;9.43;3.40;;;;;;;7.98;100.00;101172.25;6252214;28;20112;-88
2023/05/17 02:44:28;;;;;;;10.50;3.45;;;;;;;8.07;100.00;101173.44;6239204;28;20053;-88
2023/05/17 02:47:30;;;;;;;12.30;3.53;;;;;;;8.16;100.00;101180.66;6258877;28;20116;-89
2023/05/17 02:50:32;;;;;;;10.43;3.15;;;;;;;8.21;100.00;101185.56;6259694;28;20048;-89
2023/05/17 02:53:34;;;;;;;14.27;3.47;;;;;;;8.23;100.00;101191.47;6228054;28;20053;-90
2023/05/17 02:56:36;;;;;;;7.75;3.20;;;;;;;8.13;100.00;101193.75;6266232;28;20516;-89
2023/05/17 02:59:38;;;;;;;9.13;3.70;;;;;;;8.10;100.00;101190.50;6260897;28;20037;-88
2023/05/17 03:02:40;;;;;;;9.60;3.33;;;;;;;8.08;100.00;101195.75;6251497;28;20435;-89
2023/05/17 03:05:42;;;;;;;12.52;3.90;;;;;;;8.04;100.00;101193.44;6249585;28;20036;-90
2023/05/17 03:08:44;;;;;;;11.68;3.70;;;;;;;7.86;100.00;101196.16;6267302;28;20036;-90
2023/05/17 03:11:46;;;;;;;8.23;3.30;;;;;;;7.89;100.00;101208.84;6261746;28;20036;-89
2023/05/17 03:14:55;;;;;;;10.13;3.53;;;;;;;7.77;100.00;101212.94;6255335;28;20041;-89
2023/05/17 03:17:58;;;;;;;13.40;3.65;;;;;;;7.70;100.00;101214.25;6262576;28;20056;-88
2023/05/17 03:21:00;;;;;;;11.93;3.53;;;;;;;7.61;100.00;101203.59;6255722;28;20503;-89
2023/05/17 03:24:02;;;;;;;8.00;3.17;;;;;;;7.57;100.00;101215.81;6263464;28;20045;-89
2023/05/17 03:27:05;;;;;;;15.95;3.58;;;;;;;7.51;100.00;101214.41;6246815;28;20049;-89
2023/05/17 03:30:09;;;;;;;11.50;3.58;;;;;;;7.51;100.00;101229.03;6262724;28;20426;-89
2023/05/17 03:33:11;;;;;;;9.48;3.35;;;;;;;7.41;100.00;101231.28;6263565;28;20048;-89
2023/05/17 03:36:13;;;;;;;10.98;3.40;;;;;;;7.43;100.00;101229.47;6251883;28;20049;-89
2023/05/17 03:39:16;;;;;;;9.23;3.78;;;;;;;7.43;100.00;101228.63;6246820;28;20118;-90
2023/05/17 03:42:19;;;;;;;10.07;3.53;;;;;;;7.39;100.00;101240.03;6264863;28;20467;-89
2023/05/17 03:45:22;;;;;;;10.13;3.50;;;;;;;7.42;100.00;101245.00;6251301;28;20501;-89
2023/05/17 03:48:24;;;;;;;10.73;3.33;;;;;;;7.40;100.00;101246.81;6264005;28;20053;-89
2023/05/17 03:51:26;;;;;;;11.60;3.55;;;;;;;7.39;100.00;101252.91;6243073;28;20041;-90
2023/05/17 03:54:28;;;;;;;9.68;3.70;;;;;;;7.36;100.00;101251.31;6245767;28;20049;-90
2023/05/17 03:57:30;;;;;;;11.90;3.70;;;;;;;7.35;100.00;101257.38;6250442;28;20049;-89
2023/05/17 04:00:32;;;;;;;10.95;3.78;;;;;;;7.35;100.00;101262.50;6253232;28;20038;-90
2023/05/17 04:03:40;;;;;;;13.93;3.75;;;;;;;7.38;100.00;101264.09;6250432;28;20080;-89
2023/05/17 04:06:43;;;;;;;6.45;3.35;;;;;;;7.42;100.00;101261.28;6259732;28;20048;-89
2023/05/17 04:09:47;;;;;;;11.93;3.35;;;;;;;7.36;100.00;101271.91;6246893;28;20044;-89
2023/05/17 04:12:49;;;;;;;8.32;3.50;;;;;;;7.37;100.00;101281.28;6265218;28;20067;-89
2023/05/17 04:15:51;;;;;;;9.43;3.40;;;;;;;7.37;100.00;101283.03;6251735;28;20079;-90
2023/05/17 04:18:53;;;;;;;10.77;3.58;;;;;;;7.38;100.00;101287.28;6250634;28;20045;-89
2023/05/17 04:21:55;;;;;;;10.90;3.45;;;;;;;7.36;100.00;101284.78;6264227;28;20602;-90
2023/05/17 04:24:59;;;;;;;12.77;3.70;;;;;;;7.41;100.00;101294.84;6248221;28;20821;-89
2023/05/17 04:28:02;;;;;;;10.90;3.22;;;;;;;7.41;100.00;101290.53;6250558;28;20053;-89
2023/05/17 04:31:08;;;;;;;9.77;3.33;;;;;;;7.46;100.00;101298.84;6244104;28;20049;-90
2023/05/17 04:34:12;;;;;;;10.85;3.13;;;;;;;7.44;100.00;101302.41;6241308;28;20071;-89
2023/05/17 04:37:15;;;;;;;14.10;3.88;;;;;;;7.45;100.00;101306.63;6247190;28;20386;-89
2023/05/17 04:40:21;;;;;;;10.82;3.75;;;;;;;7.46;100.00;101316.03;6239478;28;20049;-90
2023/05/17 04:43:24;;;;;;;12.77;3.90;;;;;;;7.55;100.00;101316.38;6251665;28;20815;-89
2023/05/17 04:46:26;;;;;;;11.75;3.67;;;;;;;7.49;100.00;101327.00;6241237;28;20408;-89
2023/05/17 04:49:29;;;;;;;8.45;3.15;;;;;;;7.54;100.00;101322.44;6228672;28;20049;-89
2023/05/17 04:52:31;;;;;;;14.23;3.67;;;;;;;7.63;100.00;101328.03;6253446;28;20045;-89
2023/05/17 04:55:33;;;;;;;11.18;2.65;;;;;;;7.63;100.00;101326.28;6241924;28;20048;-90
2023/05/17 04:58:35;;;;;;;12.85;3.85;;;;;;;7.63;100.00;101331.44;6240322;28;20049;-89
2023/05/17 05:01:40;;;;;;;6.90;2.50;;;;;;;7.73;100.00;101344.66;6254852;28;20146;-90
2023/05/17 05:04:42;;;;;;;12.27;3.33;;;;;;;7.84;100.00;101347.47;6250864;28;20041;-89
2023/05/17 05:07:49;;;;;;;10.70;3.47;;;;;;;7.83;100.00;101345.00;6252044;28;20829;-90
2023/05/17 05:10:51;;;;;;;10.27;3.10;;;;;;;7.82;100.00;101356.19;6231386;28;20510;-89
2023/05/17 05:13:56;;;;;;;11.70;3.38;;;;;;;7.90;100.00;101360.03;6250627;28;20065;-89
2023/05/17 05:16:59;;;;;;;10.20;2.72;;;;;;;7.98;100.00;101363.03;6242375;28;20400;-89
2023/05/17 05:20:03;;;;;;;12.93;3.38;;;;;;;7.98;100.00;101365.59;6247363;28;20475;-89
2023/05/17 05:23:05;;;;;;;14.02;3.65;;;;;;;7.93;100.00;101370.19;6255460;28;20064;-89
2023/05/17 05:26:08;;;;;;;6.22;2.33;;;;;;;7.88;100.00;101367.03;6258994;28;20371;-88
2023/05/17 05:29:10;;;;;;;11.57;2.55;;;;;;;7.96;100.00;101379.50;6257601;28;20419;-89
2023/05/17 05:32:14;;;;;;;11.52;2.88;;;;;;;8.11;100.00;101385.56;6259920;28;20045;-89
2023/05/17 05:35:21;;;;;;;11.15;3.10;;;;;;;8.10;100.00;101391.63;6249326;28;20172;-89
2023/05/17 05:38:23;;;;;;;13.60;3.00;;;;;;;8.11;100.00;101390.72;6254094;28;20033;-89
2023/05/17 05:41:26;;;;;;;14.18;3.28;;;;;;;8.22;100.00;101397.84;6253613;28;20384;-89
2023/05/17 05:44:30;;;;;;;8.65;2.92;;;;;;;8.33;100.00;101398.94;6257111;28;20807;-90
2023/05/17 05:47:32;;;;;;;10.50;2.53;;;;;;;8.32;100.00;101409.31;6254444;28;20037;-88
2023/05/17 05:50:34;;;;;;;16.65;3.70;;;;;;;8.28;100.00;101406.09;6254562;28;20554;-88
2023/05/17 05:53:42;;;;;;;9.25;2.55;;;;;;;8.37;100.00;101425.38;6253475;28;20072;-89
2023/05/17 05:56:44;;;;;;;10.57;2.75;;;;;;;8.36;100.00;101413.41;6256287;28;20153;-89
2023/05/17 05:59:49;;;;;;;8.02;2.33;;;;;;;8.36;100.00;101419.41;6254821;28;20048;-90
2023/05/17 06:02:52;;;;;;;16.17;2.85;;;;;;;8.49;100.00;101424.72;6259075;28;20411;-90
2023/05/17 06:05:55;;;;;;;12.15;3.00;;;;;;;8.53;100.00;101421.06;6259252;28;20521;-89
2023/05/17 06:08:57;;;;;;;6.82;2.15;;;;;;;8.56;100.00;101420.06;6258809;28;20052;-89
2023/05/17 06:12:04;;;;;;;13.38;2.65;;;;;;;8.72;100.00;101425.19;6254941;28;20079;-90
2023/05/17 06:15:06;;;;;;;7.90;1.98;;;;;;;8.89;100.00;101427.63;6254365;28;20044;-90
2023/05/17 06:18:08;;;;;;;10.38;2.55;;;;;;;9.11;100.00;101426.41;6254847;28;20049;-88
2023/05/17 06:21:14;;;;;;;12.98;3.00;;;;;;;9.13;100.00;101433.16;6257204;28;20141;-90
2023/05/17 06:24:16;;;;;;;12.63;2.28;;;;;;;9.04;100.00;101431.09;6257790;28;20483;-89
2023/05/17 06:27:18;;;;;;;9.95;2.10;;;;;;;9.02;100.00;101431.19;6258668;28;20511;-89
2023/05/17 06:30:20;;;;;;;9.27;2.00;;;;;;;9.06;100.00;101462.84;6247258;28;20606;-89
2023/05/17 06:33:23;;;;;;;8.02;2.10;;;;;;;9.08;100.00;101449.84;6258291;28;20056;-90
2023/05/17 06:36:25;;;;;;;12.30;2.28;;;;;;;9.33;100.00;101469.91;6258819;28;20041;-94
2023/05/17 06:39:27;;;;;;;5.50;1.80;;;;;;;9.30;100.00;101444.25;6256044;28;20033;-90
2023/05/17 06:42:29;;;;;;;11.13;1.90;;;;;;;9.48;100.00;101481.91;6246770;28;20053;-90
2023/05/17 06:45:31;;;;;;;11.02;2.40;;;;;;;9.52;100.00;101457.56;6217325;28;20505;-89
2023/05/17 06:48:33;;;;;;;9.18;1.88;;;;;;;9.45;100.00;101456.28;6248965;28;20248;-89
2023/05/17 06:51:36;;;;;;;8.50;1.80;;;;;;;9.34;100.00;101463.81;6238959;28;20050;-89
2023/05/17 06:54:38;;;;;;;8.43;1.92;;;;;;;9.35;100.00;101458.56;6239330;28;20411;-89
2023/05/17 06:57:40;;;;;;;6.88;2.13;;;;;;;9.43;100.00;101461.50;6237450;28;20048;-89
2023/05/17 07:00:42;;;;;;;9.65;2.17;;;;;;;9.59;100.00;101465.75;6252623;28;20509;-90
2023/05/17 07:03:45;;;;;;;6.20;1.60;;;;;;;9.64;100.00;101462.00;6245432;28;20038;-91
2023/05/17 07:06:47;;;;;;;7.70;1.67;;;;;;;9.68;100.00;101478.16;6244755;28;20051;-89
2023/05/17 07:09:50;;;;;;;10.23;2.25;;;;;;;9.83;100.00;101490.16;6245686;28;20045;-89
2023/05/17 07:12:53;;;;;;;10.15;2.08;;;;;;;9.99;100.00;101479.72;6259113;28;20068;-90
2023/05/17 07:15:55;;;;;;;8.30;1.77;;;;;;;10.10;100.00;101492.00;6247680;28;20463;-92
2023/05/17 07:18:57;;;;;;;7.30;1.98;;;;;;;10.23;100.00;101498.06;6239320;28;20037;-91
2023/05/17 07:22:00;;;;;;;9.13;1.70;;;;;;;10.40;100.00;101501.41;6249750;28;20844;-91
2023/05/17 07:25:03;;;;;;;4.43;1.42;;;;;;;10.72;100.00;101502.78;6235719;28;20053;-91
2023/05/17 07:28:05;;;;;;;5.65;1.48;;;;;;;10.92;100.00;101511.88;6248702;28;20630;-89
2023/05/17 07:31:08;;;;;;;7.68;1.60;;;;;;;11.15;100.00;101502.59;6236671;28;20053;-90
2023/05/17 07:34:13;;;;;;;13.77;1.90;;;;;;;11.29;100.00;101525.00;6237814;28;20168;-91
2023/05/17 07:37:15;;;;;;;5.10;1.17;;;;;;;11.30;100.00;101516.28;6237688;28;20403;-91
2023/05/17 07:40:17;;;;;;;7.80;1.77;;;;;;;11.35;100.00;101522.03;6220903;28;20050;-90
2023/05/17 07:43:19;;;;;;;6.25;1.58;;;;;;;11.05;100.00;101548.16;6253324;28;20197;-89
2023/05/17 07:46:23;;;;;;;9.45;1.65;;;;;;;10.80;100.00;101543.72;6236834;28;20055;-91
2023/05/17 07:49:26;;;;;;;6.45;1.52;;;;;;;10.43;100.00;101533.09;6245579;28;20121;-91
2023/05/17 07:52:28;;;;;;;8.45;1.67;;;;;;;10.47;100.00;101534.56;6255613;28;20641;-90
2023/05/17 07:55:30;;;;;;;4.22;1.50;;;;;;;10.94;100.00;101538.50;6239252;28;20056;-91
2023/05/17 07:58:33;;;;;;;6.85;1.65;;;;;;;11.56;100.00;101539.69;6258606;28;20044;-91
2023/05/17 08:01:35;;;;;;;7.03;1.50;;;;;;;11.77;100.00;101563.31;6251682;28;20048;-91
2023/05/17 08:04:37;;;;;;;7.07;1.40;;;;;;;11.67;100.00;101572.66;6244073;28;21510;-91
2023/05/17 08:07:39;;;;;;;10.07;2.28;;;;;;;11.72;100.00;101563.63;6244690;28;20049;-92
2023/05/17 08:10:42;;;;;;;9.65;1.60;;;;;;;12.06;100.00;101577.78;6252898;28;20430;-93
2023/05/17 08:13:44;;;;;;;8.32;1.60;;;;;;;12.09;100.00;101574.16;6251207;28;20454;-92
2023/05/17 08:16:50;;;;;;;6.40;1.40;;;;;;;12.15;100.00;101558.16;6257605;28;20495;-91
2023/05/17 08:19:52;;;;;;;7.93;2.08;;;;;;;12.17;100.00;101577.03;6243244;28;20195;-91
2023/05/17 08:22:55;;;;;;;6.45;1.67;;;;;;;12.12;100.00;101578.28;6244327;28;20048;-89
2023/05/17 08:25:56;;;;;;;8.27;2.33;;;;;;;11.99;100.00;101589.50;6245875;28;20403;-89
2023/05/17 08:29:00;;;;;;;5.70;1.85;;;;;;;11.94;100.00;101589.00;6253475;28;20037;-90
2023/05/17 08:32:04;;;;;;;11.18;1.90;;;;;;;12.09;100.00;101576.75;6254508;28;20041;-90
2023/05/17 08:35:06;;;;;;;7.55;1.65;;;;;;;12.44;100.00;101581.25;6243779;28;20348;-90
2023/05/17 08:38:08;;;;;;;6.50;1.75;;;;;;;12.59;100.00;101576.75;6252385;28;20076;-91
2023/05/17 08:41:10;;;;;;;10.95;1.77;;;;;;;12.54;100.00;101592.66;6254925;28;20049;-90
2023/05/17 08:44:15;;;;;;;10.90;1.70;;;;;;;12.56;100.00;101585.59;6247945;28;20033;-91
2023/05/17 08:47:28;;;;;;;7.90;1.73;;;;;;;12.71;100.00;101596.69;6237034;28;20045;-90
2023/05/17 08:50:34;;;;;;;7.47;1.85;;;;;;;12.53;100.00;101585.00;6244809;28;20240;-90
2023/05/17 08:53:36;;;;;;;7.25;1.70;;;;;;;12.54;100.00;101592.66;6249458;28;20041;-90
2023/05/17 08:56:41;;;;;;;10.73;1.75;;;;;;;12.85;100.00;101586.13;6254217;28;20049;-90
2023/05/17 08:59:45;;;;;;;7.10;1.65;;;;;;;13.13;100.00;101587.56;6247067;28;20458;-90
2023/05/17 09:02:48;;;;;;;7.55;1.75;;;;;;;13.45;100.00;101586.19;6252269;28;20114;-90
2023/05/17 09:05:58;;;;;;;10.02;2.42;;;;;;;13.50;100.00;101590.09;6254614;28;20116;-91
2023/05/17 09:09:06;;;;;;;12.30;2.17;;;;;;;13.12;100.00;101595.50;6242345;28;20410;-92
2023/05/17 09:12:08;;;;;;;8.32;2.15;;;;;;;12.90;100.00;101591.84;6256412;28;20084;-91
2023/05/17 09:15:15;;;;;;;8.40;2.20;;;;;;;12.98;100.00;101591.28;6269605;28;20487;-92
2023/05/17 09:18:18;;;;;;;5.07;1.67;;;;;;;13.15;100.00;101587.47;6245409;28;20084;-92
2023/05/17 09:21:24;;;;;;;5.07;1.83;;;;;;;13.17;100.00;101590.78;6242106;28;20044;-92
2023/05/17 09:24:29;;;;;;;4.65;1.90;;;;;;;12.96;100.00;101590.56;6258406;28;20040;-93
2023/05/17 09:27:33;;;;;;;7.07;1.70;;;;;;;13.17;100.00;101584.72;6262801;28;20064;-92
2023/05/17 09:30:38;;;;;;;6.05;1.80;;;;;;;13.55;98.27;101587.97;6262501;28;20041;-93
2023/05/17 09:33:42;;;;;;;11.73;2.25;;;;;;;13.93;91.62;101586.03;6251021;28;20045;-92
2023/05/17 09:36:45;;;;;;;8.82;2.03;;;;;;;14.00;88.04;101579.41;6262344;28;20494;-93
2023/05/17 09:39:47;;;;;;;6.50;1.95;;;;;;;14.06;89.92;101578.97;6260335;28;20037;-93
2023/05/17 09:42:54;;;;;;;11.32;1.85;;;;;;;14.19;87.54;101587.47;6260847;28;20040;-93
2023/05/17 09:45:57;;;;;;;7.60;1.80;;;;;;;14.03;88.77;101591.38;6260368;28;20048;-92
2023/05/17 09:49:01;;;;;;;6.75;1.77;;;;;;;13.42;86.78;101583.81;6250175;28;20044;-93
2023/05/17 09:52:07;;;;;;;8.13;1.63;;;;;;;12.89;96.35;101584.13;6257466;28;20424;-91
2023/05/17 09:55:16;;;;;;;7.63;1.75;;;;;;;12.73;100.00;101584.41;6255212;28;20075;-93
2023/05/17 09:58:18;;;;;;;6.75;1.65;;;;;;;13.08;100.00;101587.06;6259270;28;20483;-92
2023/05/17 10:01:21;;;;;;;7.45;1.52;;;;;;;13.79;92.27;101579.28;6258726;28;20056;-92
2023/05/17 10:04:33;;;;;;;7.65;2.17;;;;;;;14.26;84.81;101580.03;6255080;28;20196;-91
2023/05/17 10:07:40;;;;;;;8.55;1.83;;;;;;;14.38;75.93;101579.06;6245360;28;20049;-93
2023/05/17 10:10:42;;;;;;;6.88;1.70;;;;;;;14.63;75.87;101585.81;6252877;28;20056;-91
2023/05/17 10:13:52;;;;;;;8.40;1.90;;;;;;;14.48;79.89;101593.97;6257140;28;20049;-92
2023/05/17 10:16:55;;;;;;;7.38;1.83;;;;;;;14.55;78.93;101592.56;6260436;28;20158;-92
2023/05/17 10:19:58;;;;;;;10.90;2.05;;;;;;;14.51;84.75;101594.56;6258064;28;20071;-92
2023/05/17 10:23:02;;;;;;;6.82;2.05;;;;;;;14.47;81.41;101602.75;6255424;28;20045;-89
2023/05/17 10:26:05;;;;;;;6.85;2.03;;;;;;;14.21;80.64;101613.41;6251044;28;20506;-91
2023/05/17 10:29:08;;;;;;;8.70;2.70;;;;;;;13.95;82.48;101599.78;6242505;28;20555;-94
2023/05/17 10:32:13;;;;;;;6.85;2.35;;;;;;;14.00;83.42;101603.66;6239560;28;20516;-95
2023/05/17 10:35:17;;;;;;;6.20;2.00;;;;;;;13.83;83.87;101611.09;6238177;28;20181;-94
2023/05/17 10:38:20;;;;;;;6.70;2.17;;;;;;;14.07;78.05;101608.44;6237946;28;20041;-96
2023/05/17 10:41:44;;;;;;;8.95;2.58;;;;;;;14.56;79.58;101608.09;6238474;28;20041;-95
2023/05/17 10:44:47;;;;;;;9.15;2.08;;;;;;;14.87;75.89;101608.25;6239099;28;20044;-94
2023/05/17 10:47:55;;;;;;;7.03;2.13;;;;;;;14.94;74.55;101603.41;6251069;28;20395;-94
2023/05/17 10:51:06;;;;;;;4.75;1.70;;;;;;;14.46;78.33;101608.88;6244684;28;20075;-95
2023/05/17 10:54:10;;;;;;;5.25;1.98;;;;;;;13.65;77.39;101616.75;6248998;28;20386;-94
2023/05/17 10:57:33;;;;;;;4.70;1.70;;;;;;;13.48;80.55;101591.97;6260849;28;20119;-94
2023/05/17 11:00:53;;;;;;;4.40;1.65;;;;;;;13.84;73.96;101587.56;6259780;28;20041;-95
2023/05/17 11:03:56;;;;;;;7.35;2.30;;;;;;;14.32;76.12;101594.34;6249151;28;20506;-95
2023/05/17 11:07:28;;;;;;;7.03;2.22;;;;;;;14.57;78.24;101575.03;6258261;28;20049;-95
2023/05/17 11:10:30;;;;;;;5.63;2.30;;;;;;;14.17;78.88;101606.78;6260483;28;20045;-95
2023/05/17 11:13:32;;;;;;;5.22;2.10;;;;;;;13.53;86.31;101595.06;6256096;28;20127;-95
2023/05/17 11:16:36;;;;;;;9.23;1.98;;;;;;;13.21;77.79;101599.19;6264114;28;20544;-94
2023/05/17 11:20:06;;;;;;;12.32;2.28;;;;;;;13.63;84.63;101581.38;6263964;28;20045;-94
2023/05/17 11:23:15;;;;;;;4.28;1.50;;;;;;;14.37;71.94;101580.00;6259416;28;20045;-95
2023/05/17 11:26:36;;;;;;;6.55;1.88;;;;;;;14.66;69.61;101584.75;6260701;28;20120;-94
2023/05/17 11:29:46;;;;;;;;;;;;;;;14.65;72.38;101585.69;6259885;28;20041;-94
2023/05/17 11:32:50;;;;;;;6.80;1.95;;;;;;;14.73;65.78;101596.34;6265862;28;19978;-94
2023/05/17 11:35:54;;;;;;;10.50;1.88;;;;;;;14.78;69.04;101599.41;6259271;28;20514;-94
2023/05/17 11:39:13;;;;;;;8.95;1.90;;;;;;;15.09;66.24;101602.16;6258520;28;20489;-95
2023/05/17 11:42:24;;;;;;;6.43;1.73;;;;;;;14.80;70.43;101607.91;6263511;28;20041;-94
2023/05/17 11:45:27;;;;;;;7.15;1.70;;;;;;;14.69;67.88;101607.94;6244880;28;20077;-94
2023/05/17 11:48:30;;;;;;;7.85;2.40;;;;;;;15.33;66.35;101599.34;6237392;28;20124;-94
2023/05/17 11:51:34;;;;;;;9.88;2.40;;;;;;;15.34;63.00;101605.38;6255244;28;20052;-94
2023/05/17 11:54:40;;;;;;;5.18;1.92;;;;;;;15.49;62.17;101602.31;6242922;28;20133;-94
2023/05/17 11:57:43;;;;;;;7.40;1.60;;;;;;;15.74;66.54;101617.78;6255942;28;20037;-95
2023/05/17 12:00:52;;;;;;;6.88;1.83;;;;;;;15.30;66.04;101607.38;6238089;28;20384;-93
2023/05/17 12:03:58;;;;;;;6.60;1.63;;;;;;;14.82;67.21;101619.03;6251924;28;20057;-94
2023/05/17 12:07:00;;;;;;;4.68;1.45;;;;;;;14.44;71.30;101628.06;6257633;28;20530;-93
2023/05/17 12:10:04;;;;;;;4.28;1.70;;;;;;;14.31;67.93;101608.28;6260839;28;20037;-94
2023/05/17 12:13:07;;;;;;;7.40;1.80;;;;;;;14.80;67.06;101613.13;6250937;28;20041;-95
2023/05/17 12:16:14;;;;;;;4.22;1.58;;;;;;;15.40;71.39;101612.69;6264325;28;20048;-95
2023/05/17 12:19:25;;;;;;;7.87;1.53;;;;;;;15.35;68.14;101625.28;6255414;28;20360;-91
2023/05/17 12:22:28;;;;;;;6.03;1.88;;;;;;;15.06;69.31;101634.53;6265357;28;20774;-95
2023/05/17 12:25:30;;;;;;;4.35;1.73;;;;;;;15.04;70.50;101641.63;6244511;28;20053;-95
2023/05/17 12:28:33;;;;;;;5.97;1.60;;;;;;;14.79;70.63;101640.16;6262364;28;20037;-95
2023/05/17 12:31:39;;;;;;;4.85;1.88;;;;;;;14.50;69.20;101646.78;6259992;28;20033;-93
2023/05/17 12:34:41;;;;;;;5.53;2.00;;;;;;;14.86;72.65;101643.94;6255032;28;20044;-95
2023/05/17 12:37:43;;;;;;;6.07;1.95;;;;;;;15.36;65.19;101643.44;6245734;28;20118;-96
2023/05/17 12:40:45;;;;;;;4.47;1.80;;;;;;;16.19;68.24;101648.81;6251484;28;20061;-95
2023/05/17 12:43:48;;;;;;;7.28;1.70;;;;;;;17.05;57.27;101639.59;6267718;28;20047;-95
2023/05/17 12:46:54;;;;;;;4.32;1.55;;;;;;;16.91;54.52;101646.03;6260862;28;20040;-94
2023/05/17 12:49:59;;;;;;;7.22;1.83;;;;;;;16.25;54.76;101640.47;6253339;28;20511;-95
2023/05/17 12:53:07;;;;;;;3.33;1.33;;;;;;;15.77;56.98;101647.03;6257147;28;20040;-93
2023/05/17 12:56:21;;;;;;;6.88;2.00;;;;;;;15.49;63.62;101648.47;6250131;28;20064;-93
2023/05/17 12:59:24;;;;;;;4.90;1.45;;;;;;;15.43;62.54;101641.16;6250059;28;20052;-95
2023/05/17 13:02:27;;;;;;;4.25;1.80;;;;;;;15.85;66.56;101643.78;6251307;28;20048;-94
2023/05/17 13:05:33;;;;;;;4.90;1.70;;;;;;;16.09;61.93;101643.53;6255329;28;20041;-95
2023/05/17 13:08:37;;;;;;;5.35;1.60;;;;;;;15.69;60.73;101647.69;6238855;28;20446;-95
2023/05/17 13:11:41;;;;;;;4.45;2.08;;;;;;;15.25;59.67;101664.31;6254584;28;20049;-92
2023/05/17 13:14:45;;;;;;;6.97;2.25;;;;;;;15.00;66.97;101644.59;6246416;28;20495;-95
2023/05/17 13:17:48;;;;;;;4.70;1.70;;;;;;;15.17;67.59;101649.28;6261834;28;20528;-95
2023/05/17 13:20:51;;;;;;;4.63;1.73;;;;;;;15.33;65.61;101648.06;6259181;28;20056;-96
2023/05/17 13:23:53;;;;;;;4.80;1.42;;;;;;;15.33;61.63;101646.28;6239989;28;20087;-93
2023/05/17 13:26:57;;;;;;;4.70;1.80;;;;;;;15.46;62.03;101640.91;6249128;28;20120;-95
2023/05/17 13:30:00;;;;;;;4.25;1.70;;;;;;;15.97;61.76;101642.78;6252522;28;20045;-94
2023/05/17 13:33:02;;;;;;;5.85;2.15;;;;;;;16.03;57.84;101642.28;6253896;28;20049;-95
2023/05/17 13:36:07;;;;;;;7.38;1.92;;;;;;;16.27;55.37;101643.75;6240316;28;20041;-95
2023/05/17 13:39:11;;;;;;;4.22;2.10;;;;;;;16.03;58.43;101633.63;6251760;28;20526;-93
2023/05/17 13:42:14;;;;;;;6.72;1.90;;;;;;;15.80;63.84;101638.97;6239958;28;20155;-94
2023/05/17 13:45:17;;;;;;;4.80;2.30;;;;;;;15.66;63.92;101636.66;6240293;28;20511;-94
2023/05/17 13:48:19;;;;;;;7.82;1.83;;;;;;;15.58;64.38;101639.91;6238298;28;20567;-95
2023/05/17 13:51:24;;;;;;;5.88;1.90;;;;;;;15.49;64.86;101638.84;6239452;28;20478;-95
2023/05/17 13:54:26;;;;;;;5.38;1.92;;;;;;;15.54;66.22;101638.47;6231871;28;20407;-95
2023/05/17 13:57:29;;;;;;;5.20;2.25;;;;;;;15.18;65.07;101630.09;6240105;28;20065;-92
2023/05/17 14:00:34;;;;;;;3.33;1.80;;;;;;;14.79;65.19;101631.50;6234618;28;20045;-93
2023/05/17 14:03:38;;;;;;;4.70;1.60;;;;;;;14.58;65.79;101628.78;6249765;28;20140;-94
2023/05/17 14:06:47;;;;;;;4.15;1.27;;;;;;;15.17;64.25;101612.78;6249221;28;20047;-95
2023/05/17 14:09:53;;;;;;;5.65;1.60;;;;;;;16.53;62.67;101624.03;6255657;28;20048;-94
2023/05/17 14:12:58;;;;;;;3.58;1.30;;;;;;;16.97;53.14;101629.81;6262094;28;20045;-95
2023/05/17 14:16:01;;;;;;;3.80;1.63;;;;;;;16.95;55.59;101629.13;6257183;28;20091;-94